sensor_id;sensor_type;location;lat;lon;timestamp;temperature;humidity
60293;DHT22;52402;52.670;6.750;2022-12-10T00:01:14;-2.30;99.90
60293;DHT22;52402;52.670;6.750;2022-12-10T00:03:41;-2.20;99.90
60293;DHT22;52402;52.670;6.750;2022-12-10T00:06:11;-2.20;99.90
60293;DHT22;52402;52.670;6.750;2022-12-10T00:08:38;-2.20;99.90
60293;DHT22;52402;52.670;6.750;2022-12-10T00:11:07;-2.10;99.90
60293;DHT22;52402;52.670;6.750;2022-12-10T00:13:33;-2.10;99.90
60293;DHT22;52402;52.670;6.750;2022-12-10T00:16:00;-2.20;99.90
60293;DHT22;52402;52.670;6.750;2022-12-10T00:18:26;-2.20;99.90
60293;DHT22;52402;52.670;6.750;2022-12-10T00:20:52;-2.20;99.90
60293;DHT22;52402;52.670;6.750;2022-12-10T00:23:18;-2.20;99.90
60293;DHT22;52402;52.670;6.750;2022-12-10T00:25:43;-2.30;99.90
60293;DHT22;52402;52.670;6.750;2022-12-10T00:28:09;-2.20;99.90
60293;DHT22;52402;52.670;6.750;2022-12-10T00:30:35;-2.30;99.90
60293;DHT22;52402;52.670;6.750;2022-12-10T00:33:00;-2.30;99.90
60293;DHT22;52402;52.670;6.750;2022-12-10T00:35:26;-2.30;99.90
60293;DHT22;52402;52.670;6.750;2022-12-10T00:37:52;-2.30;99.90
60293;DHT22;52402;52.670;6.750;2022-12-10T00:40:17;-2.20;99.90
60293;DHT22;52402;52.670;6.750;2022-12-10T00:42:43;-2.20;99.90
60293;DHT22;52402;52.670;6.750;2022-12-10T00:45:09;-2.20;99.90
60293;DHT22;52402;52.670;6.750;2022-12-10T00:47:34;-2.20;99.90
60293;DHT22;52402;52.670;6.750;2022-12-10T00:50:00;-2.10;99.90
60293;DHT22;52402;52.670;6.750;2022-12-10T00:52:26;-2.10;99.90
60293;DHT22;52402;52.670;6.750;2022-12-10T00:54:51;-2.00;99.90
60293;DHT22;52402;52.670;6.750;2022-12-10T00:57:17;-2.00;99.90
60293;DHT22;52402;52.670;6.750;2022-12-10T00:59:43;-1.90;99.90
60293;DHT22;52402;52.670;6.750;2022-12-10T01:02:08;-1.90;99.90
60293;DHT22;52402;52.670;6.750;2022-12-10T01:04:35;-1.70;99.90
60293;DHT22;52402;52.670;6.750;2022-12-10T01:07:01;-1.70;99.90
60293;DHT22;52402;52.670;6.750;2022-12-10T01:09:29;-1.70;99.90
60293;DHT22;52402;52.670;6.750;2022-12-10T01:11:57;-1.70;99.90
60293;DHT22;52402;52.670;6.750;2022-12-10T01:14:27;-1.60;99.90
60293;DHT22;52402;52.670;6.750;2022-12-10T01:16:55;-1.60;99.90
60293;DHT22;52402;52.670;6.750;2022-12-10T01:19:21;-1.50;99.90
60293;DHT22;52402;52.670;6.750;2022-12-10T01:21:53;-1.50;99.90
60293;DHT22;52402;52.670;6.750;2022-12-10T01:24:24;-1.50;99.90
60293;DHT22;52402;52.670;6.750;2022-12-10T01:26:50;-1.30;99.90
60293;DHT22;52402;52.670;6.750;2022-12-10T01:29:16;-1.30;99.90
60293;DHT22;52402;52.670;6.750;2022-12-10T01:31:42;-1.20;99.90
60293;DHT22;52402;52.670;6.750;2022-12-10T01:34:11;-1.20;99.90
60293;DHT22;52402;52.670;6.750;2022-12-10T01:36:39;-1.20;99.90
60293;DHT22;52402;52.670;6.750;2022-12-10T01:39:08;-1.10;99.90
60293;DHT22;52402;52.670;6.750;2022-12-10T01:41:37;-1.10;99.90
60293;DHT22;52402;52.670;6.750;2022-12-10T01:46:40;-1.00;99.90
60293;DHT22;52402;52.670;6.750;2022-12-10T01:49:13;-1.00;99.90
60293;DHT22;52402;52.670;6.750;2022-12-10T01:51:41;-1.00;99.90
60293;DHT22;52402;52.670;6.750;2022-12-10T01:54:12;-0.90;99.90
60293;DHT22;52402;52.670;6.750;2022-12-10T01:56:43;-0.90;99.90
60293;DHT22;52402;52.670;6.750;2022-12-10T01:59:09;-0.90;99.90
60293;DHT22;52402;52.670;6.750;2022-12-10T02:01:52;-0.90;99.90
60293;DHT22;52402;52.670;6.750;2022-12-10T02:07:20;-0.80;99.90
60293;DHT22;52402;52.670;6.750;2022-12-10T02:15:08;-0.80;99.90
60293;DHT22;52402;52.670;6.750;2022-12-10T02:17:37;-0.80;99.90
60293;DHT22;52402;52.670;6.750;2022-12-10T02:20:34;-0.80;99.90
60293;DHT22;52402;52.670;6.750;2022-12-10T02:23:11;-0.80;99.90
60293;DHT22;52402;52.670;6.750;2022-12-10T02:25:55;-0.80;99.90
60293;DHT22;52402;52.670;6.750;2022-12-10T02:31:00;-0.90;99.90
60293;DHT22;52402;52.670;6.750;2022-12-10T02:33:27;-0.90;99.90
60293;DHT22;52402;52.670;6.750;2022-12-10T02:35:56;-0.90;99.90
60293;DHT22;52402;52.670;6.750;2022-12-10T02:38:28;-0.90;99.90
60293;DHT22;52402;52.670;6.750;2022-12-10T02:41:01;-1.00;99.90
60293;DHT22;52402;52.670;6.750;2022-12-10T02:43:28;-1.10;99.90
60293;DHT22;52402;52.670;6.750;2022-12-10T02:45:56;-1.10;99.90
60293;DHT22;52402;52.670;6.750;2022-12-10T02:48:23;-1.20;99.90
60293;DHT22;52402;52.670;6.750;2022-12-10T02:50:49;-1.20;99.90
60293;DHT22;52402;52.670;6.750;2022-12-10T02:53:15;-1.20;99.90
60293;DHT22;52402;52.670;6.750;2022-12-10T03:03:58;-1.50;99.90
60293;DHT22;52402;52.670;6.750;2022-12-10T03:06:30;-1.50;99.90
60293;DHT22;52402;52.670;6.750;2022-12-10T03:09:08;-1.50;99.90
60293;DHT22;52402;52.670;6.750;2022-12-10T03:11:35;-1.50;99.90
60293;DHT22;52402;52.670;6.750;2022-12-10T03:14:09;-1.50;99.90
60293;DHT22;52402;52.670;6.750;2022-12-10T03:16:44;-1.60;99.90
60293;DHT22;52402;52.670;6.750;2022-12-10T03:19:15;-1.60;99.90
60293;DHT22;52402;52.670;6.750;2022-12-10T03:21:42;-1.60;99.90
60293;DHT22;52402;52.670;6.750;2022-12-10T03:24:10;-1.60;99.90
60293;DHT22;52402;52.670;6.750;2022-12-10T03:26:39;-1.70;99.90
60293;DHT22;52402;52.670;6.750;2022-12-10T03:29:10;-1.70;99.90
60293;DHT22;52402;52.670;6.750;2022-12-10T03:31:38;-1.70;99.90
60293;DHT22;52402;52.670;6.750;2022-12-10T03:34:06;-1.70;99.90
60293;DHT22;52402;52.670;6.750;2022-12-10T03:36:32;-1.70;99.90
60293;DHT22;52402;52.670;6.750;2022-12-10T03:38:58;-1.60;99.90
60293;DHT22;52402;52.670;6.750;2022-12-10T03:41:25;-1.60;99.90
60293;DHT22;52402;52.670;6.750;2022-12-10T03:46:17;-1.70;99.90
60293;DHT22;52402;52.670;6.750;2022-12-10T03:48:43;-1.70;99.90
60293;DHT22;52402;52.670;6.750;2022-12-10T03:51:09;-1.70;99.90
60293;DHT22;52402;52.670;6.750;2022-12-10T03:53:34;-1.70;99.90
60293;DHT22;52402;52.670;6.750;2022-12-10T03:56:00;-1.70;99.90
60293;DHT22;52402;52.670;6.750;2022-12-10T03:58:25;-1.70;99.90
60293;DHT22;52402;52.670;6.750;2022-12-10T04:00:51;-1.70;99.90
60293;DHT22;52402;52.670;6.750;2022-12-10T04:03:17;-1.70;99.90
60293;DHT22;52402;52.670;6.750;2022-12-10T04:05:42;-1.70;99.90
60293;DHT22;52402;52.670;6.750;2022-12-10T04:08:08;-1.60;99.90
60293;DHT22;52402;52.670;6.750;2022-12-10T04:10:37;-1.70;99.90
60293;DHT22;52402;52.670;6.750;2022-12-10T04:13:03;-1.70;99.90
60293;DHT22;52402;52.670;6.750;2022-12-10T04:15:48;-1.70;99.90
60293;DHT22;52402;52.670;6.750;2022-12-10T04:18:32;-1.70;99.90
60293;DHT22;52402;52.670;6.750;2022-12-10T04:20:58;-1.80;99.90
60293;DHT22;52402;52.670;6.750;2022-12-10T04:23:42;-1.80;99.90
60293;DHT22;52402;52.670;6.750;2022-12-10T04:26:26;-1.80;99.90
60293;DHT22;52402;52.670;6.750;2022-12-10T04:29:12;-1.80;99.90
60293;DHT22;52402;52.670;6.750;2022-12-10T04:31:37;-1.90;99.90
60293;DHT22;52402;52.670;6.750;2022-12-10T04:34:03;-1.80;99.90
60293;DHT22;52402;52.670;6.750;2022-12-10T04:36:29;-1.90;99.90
60293;DHT22;52402;52.670;6.750;2022-12-10T04:38:54;-1.90;99.90
60293;DHT22;52402;52.670;6.750;2022-12-10T04:41:20;-1.90;99.90
60293;DHT22;52402;52.670;6.750;2022-12-10T04:43:45;-2.00;99.90
60293;DHT22;52402;52.670;6.750;2022-12-10T04:46:11;-2.00;99.90
60293;DHT22;52402;52.670;6.750;2022-12-10T04:48:37;-2.00;99.90
60293;DHT22;52402;52.670;6.750;2022-12-10T04:51:03;-2.10;99.90
60293;DHT22;52402;52.670;6.750;2022-12-10T04:53:29;-2.00;99.90
60293;DHT22;52402;52.670;6.750;2022-12-10T04:55:55;-2.10;99.90
60293;DHT22;52402;52.670;6.750;2022-12-10T04:58:20;-2.10;99.90
60293;DHT22;52402;52.670;6.750;2022-12-10T05:00:46;-2.00;99.90
60293;DHT22;52402;52.670;6.750;2022-12-10T05:03:11;-2.10;99.90
60293;DHT22;52402;52.670;6.750;2022-12-10T05:05:37;-2.10;99.90
60293;DHT22;52402;52.670;6.750;2022-12-10T05:08:03;-2.10;99.90
60293;DHT22;52402;52.670;6.750;2022-12-10T05:10:29;-2.20;99.90
60293;DHT22;52402;52.670;6.750;2022-12-10T05:12:55;-2.20;99.90
60293;DHT22;52402;52.670;6.750;2022-12-10T05:15:21;-2.20;99.90
60293;DHT22;52402;52.670;6.750;2022-12-10T05:17:47;-2.30;99.90
60293;DHT22;52402;52.670;6.750;2022-12-10T05:20:13;-2.30;99.90
60293;DHT22;52402;52.670;6.750;2022-12-10T05:22:38;-2.30;99.90
60293;DHT22;52402;52.670;6.750;2022-12-10T05:25:22;-2.30;99.90
60293;DHT22;52402;52.670;6.750;2022-12-10T05:27:48;-2.40;99.90
60293;DHT22;52402;52.670;6.750;2022-12-10T05:30:14;-2.40;99.90
60293;DHT22;52402;52.670;6.750;2022-12-10T05:32:39;-2.40;99.90
60293;DHT22;52402;52.670;6.750;2022-12-10T05:35:05;-2.40;99.90
60293;DHT22;52402;52.670;6.750;2022-12-10T05:37:31;-2.40;99.90
60293;DHT22;52402;52.670;6.750;2022-12-10T05:39:56;-2.40;99.90
60293;DHT22;52402;52.670;6.750;2022-12-10T05:42:22;-2.40;99.90
60293;DHT22;52402;52.670;6.750;2022-12-10T05:44:48;-2.40;99.90
60293;DHT22;52402;52.670;6.750;2022-12-10T05:47:13;-2.40;99.90
60293;DHT22;52402;52.670;6.750;2022-12-10T05:49:39;-2.50;99.90
60293;DHT22;52402;52.670;6.750;2022-12-10T05:52:04;-2.40;99.90
60293;DHT22;52402;52.670;6.750;2022-12-10T05:54:30;-2.40;99.90
60293;DHT22;52402;52.670;6.750;2022-12-10T05:56:56;-2.50;99.90
60293;DHT22;52402;52.670;6.750;2022-12-10T05:59:21;-2.50;99.90
60293;DHT22;52402;52.670;6.750;2022-12-10T06:01:47;-2.50;99.90
60293;DHT22;52402;52.670;6.750;2022-12-10T06:04:13;-2.50;99.90
60293;DHT22;52402;52.670;6.750;2022-12-10T06:06:39;-2.50;99.90
60293;DHT22;52402;52.670;6.750;2022-12-10T06:09:07;-2.50;99.90
60293;DHT22;52402;52.670;6.750;2022-12-10T06:11:35;-2.50;99.90
60293;DHT22;52402;52.670;6.750;2022-12-10T06:14:02;-2.60;99.90
60293;DHT22;52402;52.670;6.750;2022-12-10T06:16:28;-2.50;99.90
60293;DHT22;52402;52.670;6.750;2022-12-10T06:18:54;-2.50;99.90
60293;DHT22;52402;52.670;6.750;2022-12-10T06:21:21;-2.50;99.90
60293;DHT22;52402;52.670;6.750;2022-12-10T06:23:47;-2.50;99.90
60293;DHT22;52402;52.670;6.750;2022-12-10T06:26:16;-2.60;99.90
60293;DHT22;52402;52.670;6.750;2022-12-10T06:28:45;-2.60;99.90
60293;DHT22;52402;52.670;6.750;2022-12-10T06:31:11;-2.50;99.90
60293;DHT22;52402;52.670;6.750;2022-12-10T06:33:37;-2.60;99.90
60293;DHT22;52402;52.670;6.750;2022-12-10T06:36:04;-2.60;99.90
60293;DHT22;52402;52.670;6.750;2022-12-10T06:38:34;-2.50;99.90
60293;DHT22;52402;52.670;6.750;2022-12-10T06:41:04;-2.60;99.90
60293;DHT22;52402;52.670;6.750;2022-12-10T06:43:30;-2.60;99.90
60293;DHT22;52402;52.670;6.750;2022-12-10T06:45:55;-2.60;99.90
60293;DHT22;52402;52.670;6.750;2022-12-10T06:48:21;-2.60;99.90
60293;DHT22;52402;52.670;6.750;2022-12-10T06:50:47;-2.60;99.90
60293;DHT22;52402;52.670;6.750;2022-12-10T06:53:12;-2.60;99.90
60293;DHT22;52402;52.670;6.750;2022-12-10T06:55:39;-2.60;99.90
60293;DHT22;52402;52.670;6.750;2022-12-10T06:58:05;-2.50;99.90
60293;DHT22;52402;52.670;6.750;2022-12-10T07:00:31;-2.50;99.90
60293;DHT22;52402;52.670;6.750;2022-12-10T07:02:56;-2.50;99.90
60293;DHT22;52402;52.670;6.750;2022-12-10T07:05:22;-2.50;99.90
60293;DHT22;52402;52.670;6.750;2022-12-10T07:07:47;-2.50;99.90
60293;DHT22;52402;52.670;6.750;2022-12-10T07:10:14;-2.50;99.90
60293;DHT22;52402;52.670;6.750;2022-12-10T07:12:39;-2.50;99.90
60293;DHT22;52402;52.670;6.750;2022-12-10T07:15:05;-2.50;99.90
60293;DHT22;52402;52.670;6.750;2022-12-10T07:17:31;-2.50;99.90
60293;DHT22;52402;52.670;6.750;2022-12-10T07:19:57;-2.50;99.90
60293;DHT22;52402;52.670;6.750;2022-12-10T07:22:23;-2.40;99.90
60293;DHT22;52402;52.670;6.750;2022-12-10T07:24:48;-2.40;99.90
60293;DHT22;52402;52.670;6.750;2022-12-10T07:27:15;-2.40;99.90
60293;DHT22;52402;52.670;6.750;2022-12-10T07:29:41;-2.40;99.90
60293;DHT22;52402;52.670;6.750;2022-12-10T07:32:06;-2.30;99.90
60293;DHT22;52402;52.670;6.750;2022-12-10T07:34:32;-2.30;99.90
60293;DHT22;52402;52.670;6.750;2022-12-10T07:36:58;-2.30;99.90
60293;DHT22;52402;52.670;6.750;2022-12-10T07:39:23;-2.30;99.90
60293;DHT22;52402;52.670;6.750;2022-12-10T07:41:50;-2.30;99.90
60293;DHT22;52402;52.670;6.750;2022-12-10T07:44:18;-2.30;99.90
60293;DHT22;52402;52.670;6.750;2022-12-10T07:46:47;-2.30;99.90
60293;DHT22;52402;52.670;6.750;2022-12-10T07:49:12;-2.30;99.90
60293;DHT22;52402;52.670;6.750;2022-12-10T07:51:39;-2.20;99.90
60293;DHT22;52402;52.670;6.750;2022-12-10T07:54:05;-2.20;99.90
60293;DHT22;52402;52.670;6.750;2022-12-10T07:56:30;-2.20;99.90
60293;DHT22;52402;52.670;6.750;2022-12-10T07:58:57;-2.20;99.90
60293;DHT22;52402;52.670;6.750;2022-12-10T08:01:24;-2.20;99.90
60293;DHT22;52402;52.670;6.750;2022-12-10T08:03:51;-2.20;99.90
60293;DHT22;52402;52.670;6.750;2022-12-10T08:06:20;-2.20;99.90
60293;DHT22;52402;52.670;6.750;2022-12-10T08:08:47;-2.20;99.90
60293;DHT22;52402;52.670;6.750;2022-12-10T08:11:14;-2.10;99.90
60293;DHT22;52402;52.670;6.750;2022-12-10T08:13:40;-2.10;99.90
60293;DHT22;52402;52.670;6.750;2022-12-10T08:16:11;-2.10;99.90
60293;DHT22;52402;52.670;6.750;2022-12-10T08:18:37;-2.10;99.90
60293;DHT22;52402;52.670;6.750;2022-12-10T08:21:07;-2.00;99.90
60293;DHT22;52402;52.670;6.750;2022-12-10T08:23:33;-2.00;99.90
60293;DHT22;52402;52.670;6.750;2022-12-10T08:26:06;-2.00;99.90
60293;DHT22;52402;52.670;6.750;2022-12-10T08:28:32;-2.00;99.90
60293;DHT22;52402;52.670;6.750;2022-12-10T08:30:58;-1.90;99.90
60293;DHT22;52402;52.670;6.750;2022-12-10T08:33:24;-1.90;99.90
60293;DHT22;52402;52.670;6.750;2022-12-10T08:35:50;-1.80;99.90
60293;DHT22;52402;52.670;6.750;2022-12-10T08:38:15;-1.80;99.90
60293;DHT22;52402;52.670;6.750;2022-12-10T08:40:42;-1.80;99.90
60293;DHT22;52402;52.670;6.750;2022-12-10T08:43:08;-1.80;99.90
60293;DHT22;52402;52.670;6.750;2022-12-10T08:45:34;-1.70;99.90
60293;DHT22;52402;52.670;6.750;2022-12-10T08:48:01;-1.70;99.90
60293;DHT22;52402;52.670;6.750;2022-12-10T08:50:27;-1.60;99.90
60293;DHT22;52402;52.670;6.750;2022-12-10T08:52:52;-1.60;99.90
60293;DHT22;52402;52.670;6.750;2022-12-10T08:55:18;-1.60;99.90
60293;DHT22;52402;52.670;6.750;2022-12-10T08:57:44;-1.50;99.90
60293;DHT22;52402;52.670;6.750;2022-12-10T09:00:10;-1.50;99.90
60293;DHT22;52402;52.670;6.750;2022-12-10T09:02:35;-1.50;99.90
60293;DHT22;52402;52.670;6.750;2022-12-10T09:05:01;-1.40;99.90
60293;DHT22;52402;52.670;6.750;2022-12-10T09:07:27;-1.40;99.90
60293;DHT22;52402;52.670;6.750;2022-12-10T09:09:52;-1.40;99.90
60293;DHT22;52402;52.670;6.750;2022-12-10T09:12:18;-1.30;99.90
60293;DHT22;52402;52.670;6.750;2022-12-10T09:14:43;-1.30;99.90
60293;DHT22;52402;52.670;6.750;2022-12-10T09:17:09;-1.30;99.90
60293;DHT22;52402;52.670;6.750;2022-12-10T09:19:35;-1.20;99.90
60293;DHT22;52402;52.670;6.750;2022-12-10T09:22:01;-1.20;99.90
60293;DHT22;52402;52.670;6.750;2022-12-10T09:24:26;-1.10;99.90
60293;DHT22;52402;52.670;6.750;2022-12-10T09:26:52;-1.10;99.90
60293;DHT22;52402;52.670;6.750;2022-12-10T09:29:17;-1.00;99.90
60293;DHT22;52402;52.670;6.750;2022-12-10T09:31:43;-0.90;99.90
60293;DHT22;52402;52.670;6.750;2022-12-10T09:34:09;-0.90;99.90
60293;DHT22;52402;52.670;6.750;2022-12-10T09:36:34;-0.90;99.90
60293;DHT22;52402;52.670;6.750;2022-12-10T09:39:00;-0.90;99.90
60293;DHT22;52402;52.670;6.750;2022-12-10T09:41:35;-0.80;99.90
60293;DHT22;52402;52.670;6.750;2022-12-10T09:44:21;-0.80;99.90
60293;DHT22;52402;52.670;6.750;2022-12-10T09:46:50;-0.80;99.90
60293;DHT22;52402;52.670;6.750;2022-12-10T09:51:55;-0.70;99.90
60293;DHT22;52402;52.670;6.750;2022-12-10T09:54:24;-0.60;99.90
60293;DHT22;52402;52.670;6.750;2022-12-10T09:56:51;-0.50;99.90
60293;DHT22;52402;52.670;6.750;2022-12-10T09:59:31;-0.40;99.90
60293;DHT22;52402;52.670;6.750;2022-12-10T10:04:41;-0.30;99.90
60293;DHT22;52402;52.670;6.750;2022-12-10T10:07:08;-0.30;99.90
60293;DHT22;52402;52.670;6.750;2022-12-10T10:09:39;-0.30;99.90
60293;DHT22;52402;52.670;6.750;2022-12-10T10:12:15;-0.30;99.90
60293;DHT22;52402;52.670;6.750;2022-12-10T10:14:44;-0.20;99.90
60293;DHT22;52402;52.670;6.750;2022-12-10T10:17:36;-0.20;99.90
60293;DHT22;52402;52.670;6.750;2022-12-10T10:20:03;-0.10;99.90
60293;DHT22;52402;52.670;6.750;2022-12-10T10:22:28;-0.10;99.90
60293;DHT22;52402;52.670;6.750;2022-12-10T10:24:56;-0.10;99.90
60293;DHT22;52402;52.670;6.750;2022-12-10T10:27:24;-0.10;99.90
60293;DHT22;52402;52.670;6.750;2022-12-10T10:29:57;-0.10;99.90
60293;DHT22;52402;52.670;6.750;2022-12-10T10:32:29;-0.10;99.90
60293;DHT22;52402;52.670;6.750;2022-12-10T10:35:32;-0.10;99.90
60293;DHT22;52402;52.670;6.750;2022-12-10T10:38:05;-0.10;99.90
60293;DHT22;52402;52.670;6.750;2022-12-10T10:40:43;-0.10;99.90
60293;DHT22;52402;52.670;6.750;2022-12-10T10:43:41;-0.10;99.90
60293;DHT22;52402;52.670;6.750;2022-12-10T10:46:12;-0.10;99.90
60293;DHT22;52402;52.670;6.750;2022-12-10T10:48:38;-0.10;99.90
60293;DHT22;52402;52.670;6.750;2022-12-10T10:58:57;-0.20;99.90
60293;DHT22;52402;52.670;6.750;2022-12-10T11:01:25;-0.20;99.90
60293;DHT22;52402;52.670;6.750;2022-12-10T11:03:56;-0.20;99.90
60293;DHT22;52402;52.670;6.750;2022-12-10T11:06:22;-0.20;99.90
60293;DHT22;52402;52.670;6.750;2022-12-10T11:08:48;-0.20;99.90
60293;DHT22;52402;52.670;6.750;2022-12-10T11:11:22;-0.10;99.90
60293;DHT22;52402;52.670;6.750;2022-12-10T11:13:51;-0.20;99.90
60293;DHT22;52402;52.670;6.750;2022-12-10T11:16:22;-0.20;99.90
60293;DHT22;52402;52.670;6.750;2022-12-10T11:21:22;-0.10;99.90
60293;DHT22;52402;52.670;6.750;2022-12-10T11:23:51;-0.20;99.90
60293;DHT22;52402;52.670;6.750;2022-12-10T11:35:05;-0.10;99.90
60293;DHT22;52402;52.670;6.750;2022-12-10T11:55:07;-0.10;99.90
60293;DHT22;52402;52.670;6.750;2022-12-10T11:57:54;-0.10;99.90
60293;DHT22;52402;52.670;6.750;2022-12-10T12:00:24;-0.10;99.90
60293;DHT22;52402;52.670;6.750;2022-12-10T12:09:11;-0.10;99.90
60293;DHT22;52402;52.670;6.750;2022-12-10T12:14:36;-0.20;99.90
60293;DHT22;52402;52.670;6.750;2022-12-10T12:17:38;-0.10;99.90
60293;DHT22;52402;52.670;6.750;2022-12-10T12:20:19;-0.10;99.90
60293;DHT22;52402;52.670;6.750;2022-12-10T12:22:52;-0.10;99.90
60293;DHT22;52402;52.670;6.750;2022-12-10T12:25:27;-0.10;99.90
60293;DHT22;52402;52.670;6.750;2022-12-10T12:28:20;-0.10;99.90
60293;DHT22;52402;52.670;6.750;2022-12-10T12:30:50;-0.20;99.90
60293;DHT22;52402;52.670;6.750;2022-12-10T12:33:38;-0.10;99.90
60293;DHT22;52402;52.670;6.750;2022-12-10T12:36:19;-0.20;99.90
60293;DHT22;52402;52.670;6.750;2022-12-10T12:38:55;-0.10;99.90
60293;DHT22;52402;52.670;6.750;2022-12-10T12:41:28;-0.20;99.90
60293;DHT22;52402;52.670;6.750;2022-12-10T12:46:45;-0.20;99.90
60293;DHT22;52402;52.670;6.750;2022-12-10T12:49:27;-0.20;99.90
60293;DHT22;52402;52.670;6.750;2022-12-10T12:52:02;-0.20;99.90
60293;DHT22;52402;52.670;6.750;2022-12-10T12:54:32;-0.20;99.90
60293;DHT22;52402;52.670;6.750;2022-12-10T13:04:51;-0.20;99.90
60293;DHT22;52402;52.670;6.750;2022-12-10T13:09:51;-0.20;99.90
60293;DHT22;52402;52.670;6.750;2022-12-10T13:12:28;-0.10;99.90
60293;DHT22;52402;52.670;6.750;2022-12-10T13:15:22;-0.10;99.90
60293;DHT22;52402;52.670;6.750;2022-12-10T13:20:45;-0.10;99.90
60293;DHT22;52402;52.670;6.750;2022-12-10T13:28:31;-0.10;99.90
60293;DHT22;52402;52.670;6.750;2022-12-10T13:36:12;-0.10;99.90
60293;DHT22;52402;52.670;6.750;2022-12-10T13:39:10;0.00;99.90
60293;DHT22;52402;52.670;6.750;2022-12-10T13:45:00;0.00;99.90
60293;DHT22;52402;52.670;6.750;2022-12-10T13:50:06;-0.10;99.90
60293;DHT22;52402;52.670;6.750;2022-12-10T13:55:33;-0.10;99.90
60293;DHT22;52402;52.670;6.750;2022-12-10T14:01:07;-0.10;99.90
60293;DHT22;52402;52.670;6.750;2022-12-10T14:03:48;-0.10;99.90
60293;DHT22;52402;52.670;6.750;2022-12-10T14:11:41;0.00;99.90
60293;DHT22;52402;52.670;6.750;2022-12-10T14:14:15;-0.10;99.90
60293;DHT22;52402;52.670;6.750;2022-12-10T14:16:45;-0.10;99.90
60293;DHT22;52402;52.670;6.750;2022-12-10T14:19:14;-0.10;99.90
60293;DHT22;52402;52.670;6.750;2022-12-10T14:21:43;-0.10;99.90
60293;DHT22;52402;52.670;6.750;2022-12-10T14:24:35;-0.10;99.90
60293;DHT22;52402;52.670;6.750;2022-12-10T14:27:13;-0.10;99.90
60293;DHT22;52402;52.670;6.750;2022-12-10T14:29:44;-0.20;99.90
60293;DHT22;52402;52.670;6.750;2022-12-10T14:32:17;-0.20;99.90
60293;DHT22;52402;52.670;6.750;2022-12-10T14:34:51;-0.30;99.90
60293;DHT22;52402;52.670;6.750;2022-12-10T14:37:19;-0.20;99.90
60293;DHT22;52402;52.670;6.750;2022-12-10T14:39:47;-0.20;99.90
60293;DHT22;52402;52.670;6.750;2022-12-10T14:42:14;-0.20;99.90
60293;DHT22;52402;52.670;6.750;2022-12-10T14:44:41;-0.20;99.90
60293;DHT22;52402;52.670;6.750;2022-12-10T14:47:13;-0.20;99.90
60293;DHT22;52402;52.670;6.750;2022-12-10T14:49:41;-0.20;99.90
60293;DHT22;52402;52.670;6.750;2022-12-10T14:52:19;-0.20;99.90
60293;DHT22;52402;52.670;6.750;2022-12-10T14:54:45;-0.20;99.90
60293;DHT22;52402;52.670;6.750;2022-12-10T14:57:34;-0.10;99.90
60293;DHT22;52402;52.670;6.750;2022-12-10T15:00:20;-0.20;99.90
60293;DHT22;52402;52.670;6.750;2022-12-10T15:02:51;-0.20;99.90
60293;DHT22;52402;52.670;6.750;2022-12-10T15:05:23;-0.20;99.90
60293;DHT22;52402;52.670;6.750;2022-12-10T15:08:05;-0.20;99.90
60293;DHT22;52402;52.670;6.750;2022-12-10T15:10:37;-0.20;99.90
60293;DHT22;52402;52.670;6.750;2022-12-10T15:13:04;-0.30;99.90
60293;DHT22;52402;52.670;6.750;2022-12-10T15:15:33;-0.20;99.90
60293;DHT22;52402;52.670;6.750;2022-12-10T15:18:21;-0.20;99.90
60293;DHT22;52402;52.670;6.750;2022-12-10T15:20:52;-0.20;99.90
60293;DHT22;52402;52.670;6.750;2022-12-10T15:28:43;-0.30;99.90
60293;DHT22;52402;52.670;6.750;2022-12-10T15:41:53;-0.30;99.90
60293;DHT22;52402;52.670;6.750;2022-12-10T15:44:38;-0.30;99.90
60293;DHT22;52402;52.670;6.750;2022-12-10T15:47:25;-0.40;99.90
60293;DHT22;52402;52.670;6.750;2022-12-10T15:49:53;-0.40;99.90
60293;DHT22;52402;52.670;6.750;2022-12-10T15:52:26;-0.40;99.90
60293;DHT22;52402;52.670;6.750;2022-12-10T15:54:53;-0.40;99.90
60293;DHT22;52402;52.670;6.750;2022-12-10T15:57:26;-0.40;99.90
60293;DHT22;52402;52.670;6.750;2022-12-10T15:59:54;-0.40;99.90
60293;DHT22;52402;52.670;6.750;2022-12-10T16:02:49;-0.40;99.90
60293;DHT22;52402;52.670;6.750;2022-12-10T16:07:45;-0.40;99.90
60293;DHT22;52402;52.670;6.750;2022-12-10T16:10:13;-0.40;99.90
60293;DHT22;52402;52.670;6.750;2022-12-10T16:12:40;-0.40;99.90
60293;DHT22;52402;52.670;6.750;2022-12-10T16:15:10;-0.30;99.90
60293;DHT22;52402;52.670;6.750;2022-12-10T16:17:37;-0.30;99.90
60293;DHT22;52402;52.670;6.750;2022-12-10T16:20:38;-0.30;99.90
60293;DHT22;52402;52.670;6.750;2022-12-10T16:23:04;-0.30;99.90
60293;DHT22;52402;52.670;6.750;2022-12-10T16:25:32;-0.30;99.90
60293;DHT22;52402;52.670;6.750;2022-12-10T16:27:58;-0.30;99.90
60293;DHT22;52402;52.670;6.750;2022-12-10T16:30:29;-0.30;99.90
60293;DHT22;52402;52.670;6.750;2022-12-10T16:32:57;-0.30;99.90
60293;DHT22;52402;52.670;6.750;2022-12-10T16:35:22;-0.30;99.90
60293;DHT22;52402;52.670;6.750;2022-12-10T16:37:49;-0.20;99.90
60293;DHT22;52402;52.670;6.750;2022-12-10T16:40:17;-0.20;99.90
60293;DHT22;52402;52.670;6.750;2022-12-10T16:42:42;-0.30;99.90
60293;DHT22;52402;52.670;6.750;2022-12-10T16:45:16;-0.30;99.90
60293;DHT22;52402;52.670;6.750;2022-12-10T16:47:43;-0.40;99.90
60293;DHT22;52402;52.670;6.750;2022-12-10T16:50:09;-0.40;99.90
60293;DHT22;52402;52.670;6.750;2022-12-10T16:52:35;-0.30;99.90
60293;DHT22;52402;52.670;6.750;2022-12-10T16:55:00;-0.40;99.90
60293;DHT22;52402;52.670;6.750;2022-12-10T16:57:26;-0.30;99.90
60293;DHT22;52402;52.670;6.750;2022-12-10T16:59:52;-0.30;99.90
60293;DHT22;52402;52.670;6.750;2022-12-10T17:02:18;-0.30;99.90
60293;DHT22;52402;52.670;6.750;2022-12-10T17:04:46;-0.30;99.90
60293;DHT22;52402;52.670;6.750;2022-12-10T17:07:13;-0.30;99.90
60293;DHT22;52402;52.670;6.750;2022-12-10T17:09:39;-0.30;99.90
60293;DHT22;52402;52.670;6.750;2022-12-10T17:12:06;-0.30;99.90
60293;DHT22;52402;52.670;6.750;2022-12-10T17:14:37;-0.30;99.90
60293;DHT22;52402;52.670;6.750;2022-12-10T17:17:04;-0.30;99.90
60293;DHT22;52402;52.670;6.750;2022-12-10T17:19:38;-0.30;99.90
60293;DHT22;52402;52.670;6.750;2022-12-10T17:22:06;-0.30;99.90
60293;DHT22;52402;52.670;6.750;2022-12-10T17:24:32;-0.40;99.90
60293;DHT22;52402;52.670;6.750;2022-12-10T17:27:04;-0.40;99.90
60293;DHT22;52402;52.670;6.750;2022-12-10T17:29:33;-0.30;99.90
60293;DHT22;52402;52.670;6.750;2022-12-10T17:32:01;-0.30;99.90
60293;DHT22;52402;52.670;6.750;2022-12-10T17:34:27;-0.30;99.90
60293;DHT22;52402;52.670;6.750;2022-12-10T17:36:53;-0.30;99.90
60293;DHT22;52402;52.670;6.750;2022-12-10T17:39:21;-0.30;99.90
60293;DHT22;52402;52.670;6.750;2022-12-10T17:41:51;-0.30;99.90
60293;DHT22;52402;52.670;6.750;2022-12-10T17:44:18;-0.30;99.90
60293;DHT22;52402;52.670;6.750;2022-12-10T17:46:43;-0.30;99.90
60293;DHT22;52402;52.670;6.750;2022-12-10T17:49:14;-0.30;99.90
60293;DHT22;52402;52.670;6.750;2022-12-10T17:51:40;-0.30;99.90
60293;DHT22;52402;52.670;6.750;2022-12-10T17:54:06;-0.30;99.90
60293;DHT22;52402;52.670;6.750;2022-12-10T17:56:31;-0.30;99.90
60293;DHT22;52402;52.670;6.750;2022-12-10T17:58:57;-0.30;99.90
60293;DHT22;52402;52.670;6.750;2022-12-10T18:01:23;-0.30;99.90